sensor_id;sensor_type;location;lat;lon;timestamp;temperature;humidity
11399;DHT22;5755;48.116;11.608;2023-06-22T00:01:12;20.70;87.30
11399;DHT22;5755;48.116;11.608;2023-06-22T00:03:39;20.70;87.10
11399;DHT22;5755;48.116;11.608;2023-06-22T00:06:06;20.70;87.50
11399;DHT22;5755;48.116;11.608;2023-06-22T00:08:35;20.70;86.60
11399;DHT22;5755;48.116;11.608;2023-06-22T00:11:02;20.70;86.20
11399;DHT22;5755;48.116;11.608;2023-06-22T00:13:29;20.70;85.50
11399;DHT22;5755;48.116;11.608;2023-06-22T00:15:56;20.70;85.10
11399;DHT22;5755;48.116;11.608;2023-06-22T00:18:23;20.70;85.40
11399;DHT22;5755;48.116;11.608;2023-06-22T00:20:53;20.70;85.90
11399;DHT22;5755;48.116;11.608;2023-06-22T00:23:23;20.60;85.90
11399;DHT22;5755;48.116;11.608;2023-06-22T00:25:52;20.60;86.00
11399;DHT22;5755;48.116;11.608;2023-06-22T00:28:19;20.60;86.10
11399;DHT22;5755;48.116;11.608;2023-06-22T00:30:48;20.60;86.60
11399;DHT22;5755;48.116;11.608;2023-06-22T00:33:15;20.50;86.10
11399;DHT22;5755;48.116;11.608;2023-06-22T00:35:41;20.50;86.70
11399;DHT22;5755;48.116;11.608;2023-06-22T00:38:08;20.50;86.70
11399;DHT22;5755;48.116;11.608;2023-06-22T00:40:35;20.50;86.00
11399;DHT22;5755;48.116;11.608;2023-06-22T00:43:04;20.50;85.60
11399;DHT22;5755;48.116;11.608;2023-06-22T00:45:31;20.50;85.70
11399;DHT22;5755;48.116;11.608;2023-06-22T00:47:58;20.40;86.20
11399;DHT22;5755;48.116;11.608;2023-06-22T00:50:26;20.40;87.40
11399;DHT22;5755;48.116;11.608;2023-06-22T00:52:56;20.40;87.00
11399;DHT22;5755;48.116;11.608;2023-06-22T00:55:24;20.30;87.00
11399;DHT22;5755;48.116;11.608;2023-06-22T00:57:52;20.20;87.50
11399;DHT22;5755;48.116;11.608;2023-06-22T01:00:23;20.20;88.50
11399;DHT22;5755;48.116;11.608;2023-06-22T01:02:51;20.10;88.80
11399;DHT22;5755;48.116;11.608;2023-06-22T01:05:19;20.10;89.10
11399;DHT22;5755;48.116;11.608;2023-06-22T01:07:56;20.10;89.60
11399;DHT22;5755;48.116;11.608;2023-06-22T01:10:27;20.10;89.50
11399;DHT22;5755;48.116;11.608;2023-06-22T01:13:00;20.00;89.40
11399;DHT22;5755;48.116;11.608;2023-06-22T01:15:32;20.00;88.80
11399;DHT22;5755;48.116;11.608;2023-06-22T01:18:03;20.00;89.50
11399;DHT22;5755;48.116;11.608;2023-06-22T01:20:32;19.90;90.40
11399;DHT22;5755;48.116;11.608;2023-06-22T01:23:07;19.90;90.20
11399;DHT22;5755;48.116;11.608;2023-06-22T01:25:43;19.90;90.30
11399;DHT22;5755;48.116;11.608;2023-06-22T01:28:20;19.80;90.50
11399;DHT22;5755;48.116;11.608;2023-06-22T01:30:51;19.80;90.50
11399;DHT22;5755;48.116;11.608;2023-06-22T01:33:33;19.80;90.50
11399;DHT22;5755;48.116;11.608;2023-06-22T01:36:01;19.70;90.60
11399;DHT22;5755;48.116;11.608;2023-06-22T01:38:29;19.70;90.80
11399;DHT22;5755;48.116;11.608;2023-06-22T01:40:57;19.60;91.10
11399;DHT22;5755;48.116;11.608;2023-06-22T01:43:26;19.60;91.40
11399;DHT22;5755;48.116;11.608;2023-06-22T01:45:55;19.60;91.30
11399;DHT22;5755;48.116;11.608;2023-06-22T01:48:22;19.60;91.30
11399;DHT22;5755;48.116;11.608;2023-06-22T01:50:51;19.60;91.20
11399;DHT22;5755;48.116;11.608;2023-06-22T01:53:20;19.60;91.30
11399;DHT22;5755;48.116;11.608;2023-06-22T01:55:47;19.60;91.50
11399;DHT22;5755;48.116;11.608;2023-06-22T01:58:14;19.50;91.70
11399;DHT22;5755;48.116;11.608;2023-06-22T02:00:55;19.40;91.80
11399;DHT22;5755;48.116;11.608;2023-06-22T02:03:27;19.40;91.90
11399;DHT22;5755;48.116;11.608;2023-06-22T02:06:01;19.40;92.10
11399;DHT22;5755;48.116;11.608;2023-06-22T02:08:32;19.40;92.50
11399;DHT22;5755;48.116;11.608;2023-06-22T02:11:02;19.30;92.50
11399;DHT22;5755;48.116;11.608;2023-06-22T02:13:31;19.30;92.50
11399;DHT22;5755;48.116;11.608;2023-06-22T02:16:00;19.30;92.50
11399;DHT22;5755;48.116;11.608;2023-06-22T02:18:27;19.30;92.50
11399;DHT22;5755;48.116;11.608;2023-06-22T02:20:54;19.30;92.50
11399;DHT22;5755;48.116;11.608;2023-06-22T02:23:21;19.30;92.80
11399;DHT22;5755;48.116;11.608;2023-06-22T02:25:48;19.30;92.90
11399;DHT22;5755;48.116;11.608;2023-06-22T02:28:15;19.30;93.00
11399;DHT22;5755;48.116;11.608;2023-06-22T02:30:42;19.40;92.70
11399;DHT22;5755;48.116;11.608;2023-06-22T02:33:10;19.40;92.50
11399;DHT22;5755;48.116;11.608;2023-06-22T02:35:37;19.40;92.50
11399;DHT22;5755;48.116;11.608;2023-06-22T02:38:05;19.40;92.50
11399;DHT22;5755;48.116;11.608;2023-06-22T02:40:32;19.30;92.50
11399;DHT22;5755;48.116;11.608;2023-06-22T02:42:58;19.30;92.50
11399;DHT22;5755;48.116;11.608;2023-06-22T02:45:28;19.30;92.50
11399;DHT22;5755;48.116;11.608;2023-06-22T02:47:55;19.30;92.60
11399;DHT22;5755;48.116;11.608;2023-06-22T02:50:23;19.20;92.60
11399;DHT22;5755;48.116;11.608;2023-06-22T02:52:50;19.20;92.70
11399;DHT22;5755;48.116;11.608;2023-06-22T02:55:17;19.20;92.50
11399;DHT22;5755;48.116;11.608;2023-06-22T02:57:44;19.20;92.50
11399;DHT22;5755;48.116;11.608;2023-06-22T03:00:13;19.20;92.50
11399;DHT22;5755;48.116;11.608;2023-06-22T03:02:43;19.20;92.90
11399;DHT22;5755;48.116;11.608;2023-06-22T03:05:11;19.20;92.70
11399;DHT22;5755;48.116;11.608;2023-06-22T03:07:40;19.10;92.70
11399;DHT22;5755;48.116;11.608;2023-06-22T03:10:08;19.10;92.70
11399;DHT22;5755;48.116;11.608;2023-06-22T03:12:36;19.10;92.40
11399;DHT22;5755;48.116;11.608;2023-06-22T03:15:05;19.10;92.40
11399;DHT22;5755;48.116;11.608;2023-06-22T03:17:32;19.10;92.70
11399;DHT22;5755;48.116;11.608;2023-06-22T03:19:58;19.10;92.70
11399;DHT22;5755;48.116;11.608;2023-06-22T03:22:26;19.10;92.80
11399;DHT22;5755;48.116;11.608;2023-06-22T03:24:54;19.10;92.70
11399;DHT22;5755;48.116;11.608;2023-06-22T03:27:21;19.00;92.90
11399;DHT22;5755;48.116;11.608;2023-06-22T03:29:48;19.00;93.00
11399;DHT22;5755;48.116;11.608;2023-06-22T03:32:15;19.00;93.00
11399;DHT22;5755;48.116;11.608;2023-06-22T03:34:42;19.00;93.00
11399;DHT22;5755;48.116;11.608;2023-06-22T03:37:13;19.00;93.10
11399;DHT22;5755;48.116;11.608;2023-06-22T03:39:40;19.00;93.20
11399;DHT22;5755;48.116;11.608;2023-06-22T03:42:08;19.00;93.30
11399;DHT22;5755;48.116;11.608;2023-06-22T03:44:35;19.00;93.40
11399;DHT22;5755;48.116;11.608;2023-06-22T03:47:03;19.00;93.50
11399;DHT22;5755;48.116;11.608;2023-06-22T03:49:32;19.00;93.60
11399;DHT22;5755;48.116;11.608;2023-06-22T03:51:59;19.00;93.50
11399;DHT22;5755;48.116;11.608;2023-06-22T03:54:27;19.00;93.50
11399;DHT22;5755;48.116;11.608;2023-06-22T03:56:54;19.00;93.50
11399;DHT22;5755;48.116;11.608;2023-06-22T03:59:23;19.00;93.60
11399;DHT22;5755;48.116;11.608;2023-06-22T04:01:49;19.10;93.60
11399;DHT22;5755;48.116;11.608;2023-06-22T04:04:18;19.10;93.50
11399;DHT22;5755;48.116;11.608;2023-06-22T04:06:45;19.20;93.10
11399;DHT22;5755;48.116;11.608;2023-06-22T04:09:12;19.20;93.10
11399;DHT22;5755;48.116;11.608;2023-06-22T04:11:39;19.20;93.00
11399;DHT22;5755;48.116;11.608;2023-06-22T04:14:06;19.20;92.90
11399;DHT22;5755;48.116;11.608;2023-06-22T04:16:34;19.30;93.20
11399;DHT22;5755;48.116;11.608;2023-06-22T04:19:01;19.40;92.90
11399;DHT22;5755;48.116;11.608;2023-06-22T04:21:28;19.40;92.80
11399;DHT22;5755;48.116;11.608;2023-06-22T04:23:55;19.50;93.20
11399;DHT22;5755;48.116;11.608;2023-06-22T04:26:22;19.50;93.20
11399;DHT22;5755;48.116;11.608;2023-06-22T04:28:49;19.50;92.50
11399;DHT22;5755;48.116;11.608;2023-06-22T04:31:21;19.60;92.60
11399;DHT22;5755;48.116;11.608;2023-06-22T04:34:00;19.60;92.50
11399;DHT22;5755;48.116;11.608;2023-06-22T04:36:32;19.70;92.60
11399;DHT22;5755;48.116;11.608;2023-06-22T04:39:04;19.90;92.30
11399;DHT22;5755;48.116;11.608;2023-06-22T04:41:31;20.00;92.00
11399;DHT22;5755;48.116;11.608;2023-06-22T04:44:08;20.10;91.40
11399;DHT22;5755;48.116;11.608;2023-06-22T04:46:35;20.20;91.20
11399;DHT22;5755;48.116;11.608;2023-06-22T04:49:05;20.10;91.60
11399;DHT22;5755;48.116;11.608;2023-06-22T04:51:40;20.10;91.80
11399;DHT22;5755;48.116;11.608;2023-06-22T04:54:08;20.20;91.70
11399;DHT22;5755;48.116;11.608;2023-06-22T04:56:35;20.30;91.10
11399;DHT22;5755;48.116;11.608;2023-06-22T04:59:02;20.40;90.80
11399;DHT22;5755;48.116;11.608;2023-06-22T05:01:29;20.40;90.80
11399;DHT22;5755;48.116;11.608;2023-06-22T05:03:57;20.40;90.90
11399;DHT22;5755;48.116;11.608;2023-06-22T05:06:28;20.50;90.70
11399;DHT22;5755;48.116;11.608;2023-06-22T05:08:56;20.50;91.00
11399;DHT22;5755;48.116;11.608;2023-06-22T05:11:24;20.60;90.90
11399;DHT22;5755;48.116;11.608;2023-06-22T05:13:51;20.60;90.90
11399;DHT22;5755;48.116;11.608;2023-06-22T05:16:18;20.80;90.30
11399;DHT22;5755;48.116;11.608;2023-06-22T05:18:50;20.90;89.50
11399;DHT22;5755;48.116;11.608;2023-06-22T05:21:17;20.90;90.00
11399;DHT22;5755;48.116;11.608;2023-06-22T05:23:46;20.80;90.20
11399;DHT22;5755;48.116;11.608;2023-06-22T05:26:13;20.80;90.50
11399;DHT22;5755;48.116;11.608;2023-06-22T05:28:40;20.80;90.40
11399;DHT22;5755;48.116;11.608;2023-06-22T05:31:07;21.10;89.90
11399;DHT22;5755;48.116;11.608;2023-06-22T05:33:34;21.20;88.90
11399;DHT22;5755;48.116;11.608;2023-06-22T05:36:02;21.40;87.90
11399;DHT22;5755;48.116;11.608;2023-06-22T05:38:28;21.50;87.60
11399;DHT22;5755;48.116;11.608;2023-06-22T05:40:57;21.70;85.60
11399;DHT22;5755;48.116;11.608;2023-06-22T05:43:24;22.00;84.70
11399;DHT22;5755;48.116;11.608;2023-06-22T05:45:51;22.20;82.40
11399;DHT22;5755;48.116;11.608;2023-06-22T05:48:18;22.40;81.10
11399;DHT22;5755;48.116;11.608;2023-06-22T05:50:45;22.70;79.60
11399;DHT22;5755;48.116;11.608;2023-06-22T05:53:12;23.00;75.70
11399;DHT22;5755;48.116;11.608;2023-06-22T05:55:39;23.30;71.50
11399;DHT22;5755;48.116;11.608;2023-06-22T05:58:07;23.40;70.30
11399;DHT22;5755;48.116;11.608;2023-06-22T06:00:34;23.40;68.00
11399;DHT22;5755;48.116;11.608;2023-06-22T06:03:01;23.40;68.00
11399;DHT22;5755;48.116;11.608;2023-06-22T06:05:29;23.20;71.60
11399;DHT22;5755;48.116;11.608;2023-06-22T06:07:56;23.10;71.50
11399;DHT22;5755;48.116;11.608;2023-06-22T06:10:23;22.60;74.10
11399;DHT22;5755;48.116;11.608;2023-06-22T06:12:50;22.60;77.00
11399;DHT22;5755;48.116;11.608;2023-06-22T06:15:19;22.70;75.10
11399;DHT22;5755;48.116;11.608;2023-06-22T06:17:46;22.80;74.90
11399;DHT22;5755;48.116;11.608;2023-06-22T06:20:14;22.70;76.90
11399;DHT22;5755;48.116;11.608;2023-06-22T06:22:41;22.80;75.40
11399;DHT22;5755;48.116;11.608;2023-06-22T06:25:08;22.90;75.00
11399;DHT22;5755;48.116;11.608;2023-06-22T06:27:41;22.90;75.20
11399;DHT22;5755;48.116;11.608;2023-06-22T06:30:09;23.00;74.40
11399;DHT22;5755;48.116;11.608;2023-06-22T06:32:38;23.00;74.90
11399;DHT22;5755;48.116;11.608;2023-06-22T06:35:06;23.20;72.20
11399;DHT22;5755;48.116;11.608;2023-06-22T06:37:36;23.30;71.10
11399;DHT22;5755;48.116;11.608;2023-06-22T06:40:04;23.30;70.10
11399;DHT22;5755;48.116;11.608;2023-06-22T06:42:32;23.50;68.30
11399;DHT22;5755;48.116;11.608;2023-06-22T06:44:59;23.50;68.50
11399;DHT22;5755;48.116;11.608;2023-06-22T06:47:26;23.60;68.40
11399;DHT22;5755;48.116;11.608;2023-06-22T06:49:55;23.80;64.30
11399;DHT22;5755;48.116;11.608;2023-06-22T06:52:22;23.80;63.70
11399;DHT22;5755;48.116;11.608;2023-06-22T06:54:48;23.80;65.70
11399;DHT22;5755;48.116;11.608;2023-06-22T06:57:17;24.00;63.50
11399;DHT22;5755;48.116;11.608;2023-06-22T06:59:45;24.00;63.80
11399;DHT22;5755;48.116;11.608;2023-06-22T07:02:12;24.10;62.50
11399;DHT22;5755;48.116;11.608;2023-06-22T07:04:40;24.30;59.80
11399;DHT22;5755;48.116;11.608;2023-06-22T07:07:08;24.40;59.90
11399;DHT22;5755;48.116;11.608;2023-06-22T07:09:35;24.50;59.90
11399;DHT22;5755;48.116;11.608;2023-06-22T07:12:02;24.90;57.60
11399;DHT22;5755;48.116;11.608;2023-06-22T07:14:29;25.50;51.20
11399;DHT22;5755;48.116;11.608;2023-06-22T07:16:57;26.10;45.20
11399;DHT22;5755;48.116;11.608;2023-06-22T07:19:27;26.40;42.40
11399;DHT22;5755;48.116;11.608;2023-06-22T07:21:55;26.50;41.40
11399;DHT22;5755;48.116;11.608;2023-06-22T07:24:23;26.90;37.40
11399;DHT22;5755;48.116;11.608;2023-06-22T07:26:51;26.90;37.60
11399;DHT22;5755;48.116;11.608;2023-06-22T07:29:18;27.00;37.60
11399;DHT22;5755;48.116;11.608;2023-06-22T07:31:45;26.80;37.40
11399;DHT22;5755;48.116;11.608;2023-06-22T07:34:12;26.40;37.20
11399;DHT22;5755;48.116;11.608;2023-06-22T07:36:39;26.30;40.90
11399;DHT22;5755;48.116;11.608;2023-06-22T07:39:06;26.20;41.50
11399;DHT22;5755;48.116;11.608;2023-06-22T07:41:34;26.30;41.30
11399;DHT22;5755;48.116;11.608;2023-06-22T07:44:02;26.30;42.50
11399;DHT22;5755;48.116;11.608;2023-06-22T07:46:29;26.30;41.90
11399;DHT22;5755;48.116;11.608;2023-06-22T07:48:56;26.30;40.30
11399;DHT22;5755;48.116;11.608;2023-06-22T07:51:23;26.40;40.90
11399;DHT22;5755;48.116;11.608;2023-06-22T07:53:50;26.40;40.40
11399;DHT22;5755;48.116;11.608;2023-06-22T07:56:17;26.50;40.50
11399;DHT22;5755;48.116;11.608;2023-06-22T07:58:47;27.00;37.50
11399;DHT22;5755;48.116;11.608;2023-06-22T08:01:14;27.20;36.10
11399;DHT22;5755;48.116;11.608;2023-06-22T08:03:42;27.50;33.90
11399;DHT22;5755;48.116;11.608;2023-06-22T08:06:09;27.70;33.80
11399;DHT22;5755;48.116;11.608;2023-06-22T08:08:36;27.80;33.00
11399;DHT22;5755;48.116;11.608;2023-06-22T08:11:03;27.80;33.30
11399;DHT22;5755;48.116;11.608;2023-06-22T08:13:31;28.00;31.80
11399;DHT22;5755;48.116;11.608;2023-06-22T08:15:59;28.30;31.20
11399;DHT22;5755;48.116;11.608;2023-06-22T08:18:26;28.60;29.50
11399;DHT22;5755;48.116;11.608;2023-06-22T08:20:53;29.40;25.90
11399;DHT22;5755;48.116;11.608;2023-06-22T08:23:20;30.80;20.90
11399;DHT22;5755;48.116;11.608;2023-06-22T08:25:47;31.70;18.80
11399;DHT22;5755;48.116;11.608;2023-06-22T08:28:15;33.10;16.90
11399;DHT22;5755;48.116;11.608;2023-06-22T08:30:42;34.30;13.60
11399;DHT22;5755;48.116;11.608;2023-06-22T08:33:11;35.40;10.80
11399;DHT22;5755;48.116;11.608;2023-06-22T08:35:38;35.20;10.30
11399;DHT22;5755;48.116;11.608;2023-06-22T08:38:05;34.70;11.70
11399;DHT22;5755;48.116;11.608;2023-06-22T08:40:33;34.80;10.90
11399;DHT22;5755;48.116;11.608;2023-06-22T08:43:00;34.00;12.10
11399;DHT22;5755;48.116;11.608;2023-06-22T08:45:27;33.40;12.80
11399;DHT22;5755;48.116;11.608;2023-06-22T08:47:53;32.90;14.10
11399;DHT22;5755;48.116;11.608;2023-06-22T08:50:22;32.40;15.60
11399;DHT22;5755;48.116;11.608;2023-06-22T08:52:48;32.30;15.30
11399;DHT22;5755;48.116;11.608;2023-06-22T08:55:15;32.30;15.10
11399;DHT22;5755;48.116;11.608;2023-06-22T08:57:42;32.90;13.80
11399;DHT22;5755;48.116;11.608;2023-06-22T09:00:10;33.30;13.70
11399;DHT22;5755;48.116;11.608;2023-06-22T09:02:42;33.40;13.00
11399;DHT22;5755;48.116;11.608;2023-06-22T09:05:09;34.10;12.00
11399;DHT22;5755;48.116;11.608;2023-06-22T09:07:38;34.30;11.50
11399;DHT22;5755;48.116;11.608;2023-06-22T09:10:06;35.00;9.90
11399;DHT22;5755;48.116;11.608;2023-06-22T09:12:33;35.90;8.70
11399;DHT22;5755;48.116;11.608;2023-06-22T09:15:04;36.10;8.30
11399;DHT22;5755;48.116;11.608;2023-06-22T09:17:33;36.30;7.80
11399;DHT22;5755;48.116;11.608;2023-06-22T09:20:00;35.60;9.30
11399;DHT22;5755;48.116;11.608;2023-06-22T09:22:31;35.20;10.10
11399;DHT22;5755;48.116;11.608;2023-06-22T09:25:00;35.30;10.00
11399;DHT22;5755;48.116;11.608;2023-06-22T09:27:29;35.40;9.70
11399;DHT22;5755;48.116;11.608;2023-06-22T09:29:56;35.90;8.60
11399;DHT22;5755;48.116;11.608;2023-06-22T09:32:24;35.70;9.60
11399;DHT22;5755;48.116;11.608;2023-06-22T09:34:51;35.80;9.70
11399;DHT22;5755;48.116;11.608;2023-06-22T09:37:19;36.30;8.20
11399;DHT22;5755;48.116;11.608;2023-06-22T09:39:46;36.40;8.00
11399;DHT22;5755;48.116;11.608;2023-06-22T09:42:15;36.10;8.70
11399;DHT22;5755;48.116;11.608;2023-06-22T09:44:43;36.10;8.00
11399;DHT22;5755;48.116;11.608;2023-06-22T09:47:10;35.80;9.00
11399;DHT22;5755;48.116;11.608;2023-06-22T09:49:41;35.40;11.00
11399;DHT22;5755;48.116;11.608;2023-06-22T09:52:09;35.60;10.20
11399;DHT22;5755;48.116;11.608;2023-06-22T09:54:37;36.10;9.30
11399;DHT22;5755;48.116;11.608;2023-06-22T09:57:04;36.70;8.40
11399;DHT22;5755;48.116;11.608;2023-06-22T09:59:33;36.60;8.50
11399;DHT22;5755;48.116;11.608;2023-06-22T10:02:00;36.10;7.70
11399;DHT22;5755;48.116;11.608;2023-06-22T10:04:27;36.00;10.00
11399;DHT22;5755;48.116;11.608;2023-06-22T10:06:54;36.20;9.20
11399;DHT22;5755;48.116;11.608;2023-06-22T10:09:21;36.30;8.40
11399;DHT22;5755;48.116;11.608;2023-06-22T10:11:48;36.30;8.60
11399;DHT22;5755;48.116;11.608;2023-06-22T10:14:15;36.40;8.50
11399;DHT22;5755;48.116;11.608;2023-06-22T10:16:43;36.30;8.90
11399;DHT22;5755;48.116;11.608;2023-06-22T10:19:24;36.70;7.40
11399;DHT22;5755;48.116;11.608;2023-06-22T10:21:51;37.60;6.30
11399;DHT22;5755;48.116;11.608;2023-06-22T10:24:19;37.80;5.60
11399;DHT22;5755;48.116;11.608;2023-06-22T10:26:46;37.20;7.70
11399;DHT22;5755;48.116;11.608;2023-06-22T10:29:13;37.00;7.70
11399;DHT22;5755;48.116;11.608;2023-06-22T10:31:40;37.40;5.80
11399;DHT22;5755;48.116;11.608;2023-06-22T10:34:08;37.20;7.20
11399;DHT22;5755;48.116;11.608;2023-06-22T10:36:35;37.20;7.40
11399;DHT22;5755;48.116;11.608;2023-06-22T10:39:02;37.00;8.00
11399;DHT22;5755;48.116;11.608;2023-06-22T10:41:29;37.60;6.60
11399;DHT22;5755;48.116;11.608;2023-06-22T10:43:56;37.60;6.80
11399;DHT22;5755;48.116;11.608;2023-06-22T10:46:24;37.20;6.20
11399;DHT22;5755;48.116;11.608;2023-06-22T10:48:51;38.00;4.90
11399;DHT22;5755;48.116;11.608;2023-06-22T10:51:21;37.70;6.10
11399;DHT22;5755;48.116;11.608;2023-06-22T10:53:48;37.20;6.50
11399;DHT22;5755;48.116;11.608;2023-06-22T10:56:16;38.00;4.40
11399;DHT22;5755;48.116;11.608;2023-06-22T10:58:44;38.10;4.70
11399;DHT22;5755;48.116;11.608;2023-06-22T11:01:12;37.40;5.70
11399;DHT22;5755;48.116;11.608;2023-06-22T11:03:39;37.60;5.90
11399;DHT22;5755;48.116;11.608;2023-06-22T11:06:05;37.70;6.60
11399;DHT22;5755;48.116;11.608;2023-06-22T11:08:34;37.20;6.10
11399;DHT22;5755;48.116;11.608;2023-06-22T11:11:01;37.10;5.90
11399;DHT22;5755;48.116;11.608;2023-06-22T11:13:28;36.70;7.00
11399;DHT22;5755;48.116;11.608;2023-06-22T11:15:55;36.10;8.10
11399;DHT22;5755;48.116;11.608;2023-06-22T11:18:21;35.50;7.80
11399;DHT22;5755;48.116;11.608;2023-06-22T11:20:49;35.20;9.00
11399;DHT22;5755;48.116;11.608;2023-06-22T11:23:16;35.20;9.60
11399;DHT22;5755;48.116;11.608;2023-06-22T11:25:44;35.20;9.60
11399;DHT22;5755;48.116;11.608;2023-06-22T11:28:12;35.10;9.30
11399;DHT22;5755;48.116;11.608;2023-06-22T11:30:39;34.90;9.50
11399;DHT22;5755;48.116;11.608;2023-06-22T11:33:06;34.80;9.40
11399;DHT22;5755;48.116;11.608;2023-06-22T11:35:33;34.80;11.00
11399;DHT22;5755;48.116;11.608;2023-06-22T11:38:00;35.00;9.50
11399;DHT22;5755;48.116;11.608;2023-06-22T11:40:29;35.00;11.80
11399;DHT22;5755;48.116;11.608;2023-06-22T11:42:57;35.20;10.20
11399;DHT22;5755;48.116;11.608;2023-06-22T11:45:24;35.30;10.20
11399;DHT22;5755;48.116;11.608;2023-06-22T11:47:51;35.50;10.60
11399;DHT22;5755;48.116;11.608;2023-06-22T11:50:18;35.50;9.80
11399;DHT22;5755;48.116;11.608;2023-06-22T11:52:45;35.30;10.90
11399;DHT22;5755;48.116;11.608;2023-06-22T11:55:12;35.20;10.00
11399;DHT22;5755;48.116;11.608;2023-06-22T11:57:53;35.30;9.60
11399;DHT22;5755;48.116;11.608;2023-06-22T12:00:22;34.90;10.20
11399;DHT22;5755;48.116;11.608;2023-06-22T12:02:49;34.80;10.90
11399;DHT22;5755;48.116;11.608;2023-06-22T12:05:18;34.90;11.50
11399;DHT22;5755;48.116;11.608;2023-06-22T12:07:45;35.10;11.00
11399;DHT22;5755;48.116;11.608;2023-06-22T12:10:12;35.00;10.50
11399;DHT22;5755;48.116;11.608;2023-06-22T12:12:39;35.10;10.50
11399;DHT22;5755;48.116;11.608;2023-06-22T12:15:07;34.90;11.10
11399;DHT22;5755;48.116;11.608;2023-06-22T12:17:36;34.80;11.10
11399;DHT22;5755;48.116;11.608;2023-06-22T12:20:03;34.60;11.10
11399;DHT22;5755;48.116;11.608;2023-06-22T12:22:31;34.60;11.00
11399;DHT22;5755;48.116;11.608;2023-06-22T12:24:58;34.90;10.90
11399;DHT22;5755;48.116;11.608;2023-06-22T12:27:25;35.10;10.90
11399;DHT22;5755;48.116;11.608;2023-06-22T12:29:52;35.40;10.40
11399;DHT22;5755;48.116;11.608;2023-06-22T12:32:18;35.60;9.40
11399;DHT22;5755;48.116;11.608;2023-06-22T12:34:47;35.50;9.80
11399;DHT22;5755;48.116;11.608;2023-06-22T12:37:14;35.30;10.80
11399;DHT22;5755;48.116;11.608;2023-06-22T12:39:41;35.30;10.80
11399;DHT22;5755;48.116;11.608;2023-06-22T12:42:08;35.20;10.80
11399;DHT22;5755;48.116;11.608;2023-06-22T12:44:37;35.20;10.30
11399;DHT22;5755;48.116;11.608;2023-06-22T12:47:05;35.20;10.80
11399;DHT22;5755;48.116;11.608;2023-06-22T12:49:32;34.90;10.20
11399;DHT22;5755;48.116;11.608;2023-06-22T12:52:00;34.80;10.30
11399;DHT22;5755;48.116;11.608;2023-06-22T12:54:28;34.60;9.90
11399;DHT22;5755;48.116;11.608;2023-06-22T12:56:55;34.50;11.60
11399;DHT22;5755;48.116;11.608;2023-06-22T12:59:24;34.50;11.50
11399;DHT22;5755;48.116;11.608;2023-06-22T13:01:51;34.50;11.70
11399;DHT22;5755;48.116;11.608;2023-06-22T13:04:18;34.80;11.10
11399;DHT22;5755;48.116;11.608;2023-06-22T13:06:45;35.20;10.40
11399;DHT22;5755;48.116;11.608;2023-06-22T13:09:15;35.40;9.70
11399;DHT22;5755;48.116;11.608;2023-06-22T13:11:43;35.50;10.90
11399;DHT22;5755;48.116;11.608;2023-06-22T13:14:10;35.70;9.90
11399;DHT22;5755;48.116;11.608;2023-06-22T13:16:37;35.70;11.30
11399;DHT22;5755;48.116;11.608;2023-06-22T13:19:03;35.60;11.10
11399;DHT22;5755;48.116;11.608;2023-06-22T13:21:30;35.40;11.60
11399;DHT22;5755;48.116;11.608;2023-06-22T13:23:59;35.40;12.00
11399;DHT22;5755;48.116;11.608;2023-06-22T13:26:28;35.40;11.90
11399;DHT22;5755;48.116;11.608;2023-06-22T13:28:55;35.50;11.20
11399;DHT22;5755;48.116;11.608;2023-06-22T13:31:22;35.40;11.70
11399;DHT22;5755;48.116;11.608;2023-06-22T13:33:50;35.30;11.80
11399;DHT22;5755;48.116;11.608;2023-06-22T13:36:18;35.20;12.10
11399;DHT22;5755;48.116;11.608;2023-06-22T13:38:45;35.10;11.90
11399;DHT22;5755;48.116;11.608;2023-06-22T13:41:12;35.10;12.30
11399;DHT22;5755;48.116;11.608;2023-06-22T13:43:40;35.10;13.30
11399;DHT22;5755;48.116;11.608;2023-06-22T13:46:07;34.80;13.20
11399;DHT22;5755;48.116;11.608;2023-06-22T13:48:34;34.60;14.00
11399;DHT22;5755;48.116;11.608;2023-06-22T13:51:01;34.40;13.80
11399;DHT22;5755;48.116;11.608;2023-06-22T13:53:28;34.50;13.50
11399;DHT22;5755;48.116;11.608;2023-06-22T13:55:56;34.70;13.50
11399;DHT22;5755;48.116;11.608;2023-06-22T13:58:23;34.80;13.00
11399;DHT22;5755;48.116;11.608;2023-06-22T14:00:51;34.90;12.80
11399;DHT22;5755;48.116;11.608;2023-06-22T14:03:18;34.70;12.20
11399;DHT22;5755;48.116;11.608;2023-06-22T14:05:45;34.60;13.10
11399;DHT22;5755;48.116;11.608;2023-06-22T14:08:12;34.60;13.30
11399;DHT22;5755;48.116;11.608;2023-06-22T14:10:40;34.50;13.80
11399;DHT22;5755;48.116;11.608;2023-06-22T14:13:07;34.50;13.30
11399;DHT22;5755;48.116;11.608;2023-06-22T14:15:34;34.30;13.30
11399;DHT22;5755;48.116;11.608;2023-06-22T14:18:02;34.20;13.90
11399;DHT22;5755;48.116;11.608;2023-06-22T14:20:29;34.10;13.70
11399;DHT22;5755;48.116;11.608;2023-06-22T14:22:58;34.10;13.10
11399;DHT22;5755;48.116;11.608;2023-06-22T14:25:25;33.90;13.80
11399;DHT22;5755;48.116;11.608;2023-06-22T14:27:52;33.70;14.30
11399;DHT22;5755;48.116;11.608;2023-06-22T14:30:19;33.70;14.30
11399;DHT22;5755;48.116;11.608;2023-06-22T14:32:46;33.70;15.30
11399;DHT22;5755;48.116;11.608;2023-06-22T14:35:14;33.70;14.50
11399;DHT22;5755;48.116;11.608;2023-06-22T14:37:41;33.60;14.70
11399;DHT22;5755;48.116;11.608;2023-06-22T14:40:08;33.60;15.10
11399;DHT22;5755;48.116;11.608;2023-06-22T14:42:36;33.70;15.20
11399;DHT22;5755;48.116;11.608;2023-06-22T14:45:03;33.70;15.30
11399;DHT22;5755;48.116;11.608;2023-06-22T14:47:30;33.60;14.80
11399;DHT22;5755;48.116;11.608;2023-06-22T14:49:57;33.60;15.40
11399;DHT22;5755;48.116;11.608;2023-06-22T14:52:27;33.50;15.20
11399;DHT22;5755;48.116;11.608;2023-06-22T14:54:55;33.40;15.30
11399;DHT22;5755;48.116;11.608;2023-06-22T14:57:22;33.40;15.30
11399;DHT22;5755;48.116;11.608;2023-06-22T14:59:49;33.40;15.50
11399;DHT22;5755;48.116;11.608;2023-06-22T15:02:16;33.40;15.30
11399;DHT22;5755;48.116;11.608;2023-06-22T15:04:43;33.40;15.40
11399;DHT22;5755;48.116;11.608;2023-06-22T15:07:10;33.30;15.30
11399;DHT22;5755;48.116;11.608;2023-06-22T15:09:39;33.30;16.00
11399;DHT22;5755;48.116;11.608;2023-06-22T15:12:08;33.20;16.10
11399;DHT22;5755;48.116;11.608;2023-06-22T15:14:37;33.30;16.00
11399;DHT22;5755;48.116;11.608;2023-06-22T15:17:05;33.20;15.10
11399;DHT22;5755;48.116;11.608;2023-06-22T15:19:34;33.20;15.30
11399;DHT22;5755;48.116;11.608;2023-06-22T15:22:01;33.10;15.10
11399;DHT22;5755;48.116;11.608;2023-06-22T15:24:28;33.10;15.50
11399;DHT22;5755;48.116;11.608;2023-06-22T15:26:57;32.90;15.80
11399;DHT22;5755;48.116;11.608;2023-06-22T15:29:24;32.80;16.20
11399;DHT22;5755;48.116;11.608;2023-06-22T15:31:51;32.70;16.20
11399;DHT22;5755;48.116;11.608;2023-06-22T15:34:18;32.60;15.70
11399;DHT22;5755;48.116;11.608;2023-06-22T15:36:45;32.50;16.00